createdAt,value
2023-04-04T00:00:51.478Z,23.20
2023-04-04T00:03:20.297Z,27.80
2023-04-04T00:05:48.536Z,30.50
2023-04-04T00:08:16.295Z,39.10
2023-04-04T00:10:43.655Z,50.00
2023-04-04T00:13:12.261Z,57.90
2023-04-04T00:15:39.890Z,43.30
2023-04-04T00:18:07.493Z,39.10
2023-04-04T00:20:35.633Z,34.60
2023-04-04T00:23:03.198Z,39.20
2023-04-04T00:25:31.364Z,36.40
2023-04-04T00:28:00.378Z,32.80
2023-04-04T00:30:28.477Z,28.20
2023-04-04T00:32:56.860Z,25.30
2023-04-04T00:35:24.626Z,24.40
2023-04-04T00:37:52.233Z,29.50
2023-04-04T00:40:19.691Z,26.00
2023-04-04T00:42:47.346Z,25.40
2023-04-04T00:45:15.118Z,39.30
2023-04-04T00:47:43.083Z,49.10
2023-04-04T00:50:11.049Z,64.20
2023-04-04T00:52:38.838Z,70.70
2023-04-04T00:55:07.707Z,48.90
2023-04-04T00:57:35.374Z,45.40
2023-04-04T01:00:07.231Z,41.10
2023-04-04T01:02:35.402Z,39.00
2023-04-04T01:05:04.087Z,33.80
2023-04-04T01:07:39.214Z,25.70
2023-04-04T01:10:08.317Z,26.20
2023-04-04T01:12:36.283Z,24.50
2023-04-04T01:15:04.248Z,24.80
2023-04-04T01:17:32.554Z,26.30
2023-04-04T01:20:17.181Z,486.60
2023-04-04T01:22:48.881Z,28.80
2023-04-04T01:25:18.445Z,33.10
2023-04-04T01:27:51.017Z,35.70
2023-04-04T01:30:19.709Z,39.10
2023-04-04T01:32:55.775Z,33.00
2023-04-04T01:35:39.138Z,33.00
2023-04-04T01:38:22.761Z,29.60
2023-04-04T01:40:52.058Z,28.10
2023-04-04T01:43:21.333Z,30.10
2023-04-04T01:45:50.485Z,23.50
2023-04-04T01:48:18.289Z,26.00
2023-04-04T01:50:48.962Z,24.80
2023-04-04T01:53:17.010Z,35.10
2023-04-04T01:55:45.422Z,43.00
2023-04-04T01:58:14.188Z,39.60
2023-04-04T02:00:41.926Z,40.20
2023-04-04T02:03:09.583Z,39.60
2023-04-04T02:05:37.136Z,33.20
2023-04-04T02:08:06.135Z,33.90
2023-04-04T02:10:39.250Z,33.90
2023-04-04T02:13:11.715Z,31.00
2023-04-04T02:15:59.203Z,26.40
2023-04-04T02:18:26.646Z,29.30
2023-04-04T02:20:57.207Z,25.10
2023-04-04T02:23:24.890Z,28.60
2023-04-04T02:25:52.528Z,26.00
2023-04-04T02:28:22.879Z,36.20
2023-04-04T02:30:50.410Z,32.90
2023-04-04T02:33:20.430Z,37.30
2023-04-04T02:35:48.559Z,32.10
2023-04-04T02:38:17.507Z,36.70
2023-04-04T02:40:46.108Z,36.70
2023-04-04T02:43:14.314Z,42.30
2023-04-04T02:45:42.434Z,41.10
2023-04-04T02:48:21.993Z,27.60
2023-04-04T02:50:51.778Z,31.90
2023-04-04T02:53:19.130Z,27.00
2023-04-04T02:55:48.429Z,30.10
2023-04-04T02:58:17.953Z,37.50
2023-04-04T03:00:47.067Z,24.60
2023-04-04T03:03:15.166Z,30.60
2023-04-04T03:05:45.325Z,24.60
2023-04-04T03:08:13.802Z,24.40
2023-04-04T03:10:42.461Z,36.90
2023-04-04T03:13:10.359Z,54.00
2023-04-04T03:15:43.443Z,60.30
2023-04-04T03:18:15.439Z,62.00
2023-04-04T03:20:43.277Z,51.80
2023-04-04T03:23:11.156Z,55.00
2023-04-04T03:25:38.899Z,43.40
2023-04-04T03:28:09.760Z,49.50
2023-04-04T03:30:37.298Z,49.60
2023-04-04T03:33:09.407Z,58.80
2023-04-04T03:35:39.327Z,61.40
2023-04-04T03:38:10.314Z,56.40
2023-04-04T03:40:38.970Z,48.60
2023-04-04T03:43:11.883Z,46.60
2023-04-04T03:45:39.579Z,44.50
2023-04-04T03:48:09.560Z,44.50
2023-04-04T03:50:38.602Z,51.50
2023-04-04T03:53:06.832Z,46.10
2023-04-04T03:55:34.493Z,54.60
2023-04-04T03:58:01.948Z,58.00
2023-04-04T04:00:30.323Z,53.80
2023-04-04T04:02:59.060Z,70.90
2023-04-04T04:05:26.879Z,58.80
2023-04-04T04:07:54.278Z,65.70
2023-04-04T04:10:23.526Z,51.50
2023-04-04T04:12:52.417Z,56.70
2023-04-04T04:15:19.729Z,55.70
2023-04-04T04:17:48.689Z,45.30
2023-04-04T04:20:16.980Z,59.60
2023-04-04T04:22:48.284Z,77.20
2023-04-04T04:25:16.869Z,74.80
2023-04-04T04:27:49.137Z,65.50
2023-04-04T04:30:17.422Z,64.20
2023-04-04T04:32:56.872Z,65.10
2023-04-04T04:37:56.581Z,75.50
2023-04-04T04:40:23.977Z,59.20
2023-04-04T04:43:09.726Z,57.00
2023-04-04T04:45:38.000Z,57.40
2023-04-04T04:48:07.761Z,59.20
2023-04-04T04:50:44.206Z,66.40
2023-04-04T04:53:13.614Z,87.70
2023-04-04T04:55:46.209Z,54.20
2023-04-04T04:58:16.511Z,67.30
2023-04-04T05:00:46.633Z,64.10
2023-04-04T05:03:21.237Z,79.90
2023-04-04T05:05:50.934Z,88.80
2023-04-04T05:08:18.605Z,85.50
2023-04-04T05:10:59.060Z,84.20
2023-04-04T05:13:29.991Z,87.80
2023-04-04T05:15:58.069Z,108.10
2023-04-04T05:18:30.227Z,93.60
2023-04-04T05:20:58.101Z,99.80
2023-04-04T05:23:28.017Z,92.70
2023-04-04T05:25:55.673Z,82.30
2023-04-04T05:28:23.307Z,126.40
2023-04-04T05:30:53.074Z,118.30
2023-04-04T05:33:31.265Z,92.60
2023-04-04T05:36:15.873Z,107.30
2023-04-04T05:38:51.690Z,138.10
2023-04-04T05:41:20.033Z,122.40
2023-04-04T05:43:47.697Z,123.60
2023-04-04T05:46:16.420Z,130.80
2023-04-04T05:48:49.830Z,111.20
2023-04-04T05:51:21.437Z,120.40
2023-04-04T05:53:54.933Z,152.50
2023-04-04T05:56:26.323Z,139.70
2023-04-04T05:58:56.796Z,144.60
2023-04-04T06:01:25.317Z,142.30
2023-04-04T06:03:56.023Z,190.00
2023-04-04T06:06:28.199Z,192.70
2023-04-04T06:08:55.795Z,196.40
2023-04-04T06:11:23.413Z,166.60
2023-04-04T06:13:54.722Z,157.20
2023-04-04T06:16:22.610Z,177.10
2023-04-04T06:18:50.699Z,142.40
2023-04-04T06:21:19.075Z,156.00
2023-04-04T06:23:46.842Z,147.60
2023-04-04T06:26:14.460Z,141.70
2023-04-04T06:28:49.801Z,133.10
2023-04-04T06:31:25.065Z,138.20
2023-04-04T06:33:54.189Z,150.10
2023-04-04T06:36:24.401Z,148.90
2023-04-04T06:38:56.413Z,156.00
2023-04-04T06:41:24.359Z,127.90
2023-04-04T06:43:53.420Z,138.20
2023-04-04T06:46:22.169Z,115.60
2023-04-04T06:48:49.764Z,108.70
2023-04-04T06:51:21.639Z,69.90
2023-04-04T06:53:51.333Z,68.40
2023-04-04T06:56:18.998Z,69.40
2023-04-04T06:58:46.924Z,55.90
2023-04-04T07:01:14.366Z,64.50
2023-04-04T07:03:44.171Z,54.00
2023-04-04T07:06:11.696Z,74.80
2023-04-04T07:08:40.314Z,81.90
2023-04-04T07:11:08.185Z,96.30
2023-04-04T07:13:36.027Z,100.70
2023-04-04T07:16:03.710Z,100.70
2023-04-04T07:18:32.356Z,108.80
2023-04-04T07:21:00.425Z,113.60
2023-04-04T07:23:27.880Z,103.00
2023-04-04T07:25:55.644Z,104.00
2023-04-04T07:28:24.844Z,108.90
2023-04-04T07:30:59.071Z,103.70
2023-04-04T07:33:28.050Z,132.40
2023-04-04T07:35:55.865Z,136.00
2023-04-04T07:38:24.177Z,106.40
2023-04-04T07:40:51.762Z,117.90
2023-04-04T07:43:19.208Z,101.20
2023-04-04T07:45:47.488Z,91.00
2023-04-04T07:48:15.145Z,90.40
2023-04-04T07:50:42.803Z,81.50
2023-04-04T07:53:10.475Z,75.90
2023-04-04T07:55:37.714Z,77.40
2023-04-04T07:58:06.292Z,71.80
2023-04-04T08:00:33.858Z,54.80
2023-04-04T08:03:23.829Z,52.80
2023-04-04T08:05:51.515Z,54.50
2023-04-04T08:08:18.856Z,44.50
2023-04-04T08:10:47.241Z,54.80
2023-04-04T08:13:18.066Z,45.90
2023-04-04T08:15:45.897Z,41.40
2023-04-04T08:18:13.597Z,41.40
2023-04-04T08:20:42.892Z,39.90
2023-04-04T08:23:12.612Z,43.90
2023-04-04T08:25:44.668Z,42.60
2023-04-04T08:28:12.185Z,21.90
2023-04-04T08:30:42.143Z,23.90
2023-04-04T08:33:12.522Z,25.60
2023-04-04T08:35:40.512Z,19.10
2023-04-04T08:38:08.613Z,20.80
2023-04-04T08:40:38.282Z,21.50
2023-04-04T08:43:08.749Z,20.70
2023-04-04T08:45:37.734Z,20.20
2023-04-04T08:48:05.268Z,23.70
2023-04-04T08:50:33.264Z,26.60
2023-04-04T08:53:04.296Z,21.70
2023-04-04T08:55:32.787Z,21.00
2023-04-04T08:58:00.210Z,17.00
2023-04-04T09:00:28.040Z,17.90
2023-04-04T09:02:59.928Z,13.70
2023-04-04T09:05:27.943Z,11.10
2023-04-04T09:07:56.220Z,10.30
2023-04-04T09:10:23.990Z,9.60
2023-04-04T09:12:52.568Z,9.40
2023-04-04T09:15:22.283Z,5.70
2023-04-04T09:17:49.832Z,6.30
2023-04-04T09:20:43.541Z,11.40
2023-04-04T09:23:15.514Z,6.80
2023-04-04T09:28:23.545Z,8.00
2023-04-04T09:30:51.693Z,7.10
2023-04-04T09:33:26.399Z,8.90
2023-04-04T09:36:07.173Z,4.40
2023-04-04T09:38:36.378Z,6.70
2023-04-04T09:41:07.409Z,6.10
2023-04-04T09:43:35.872Z,6.10
2023-04-04T09:46:03.884Z,5.70
2023-04-04T09:48:32.995Z,7.60
2023-04-04T09:51:01.007Z,7.30
2023-04-04T09:53:28.575Z,6.90
2023-04-04T09:55:56.652Z,13.10
2023-04-04T09:58:28.889Z,20.80
2023-04-04T10:00:59.798Z,12.00
2023-04-04T10:03:28.323Z,5.50
2023-04-04T10:06:07.374Z,7.00
2023-04-04T10:08:41.230Z,8.00
2023-04-04T10:11:11.566Z,9.20
2023-04-04T10:13:46.266Z,9.80
2023-04-04T10:16:14.944Z,7.80
2023-04-04T10:18:43.001Z,11.20
2023-04-04T10:21:16.463Z,9.80
2023-04-04T10:23:46.697Z,12.40
2023-04-04T10:26:14.539Z,9.90
2023-04-04T10:28:44.338Z,10.80
2023-04-04T10:31:25.285Z,17.50
2023-04-04T10:34:22.487Z,11.60
2023-04-04T10:36:53.137Z,13.10
2023-04-04T10:39:26.202Z,12.60
2023-04-04T10:41:53.565Z,10.50
2023-04-04T10:44:33.307Z,22.20
2023-04-04T10:47:23.188Z,14.10
2023-04-04T10:49:51.602Z,15.10
2023-04-04T10:52:20.662Z,18.70
2023-04-04T10:54:52.250Z,11.20
2023-04-04T10:57:20.191Z,15.10
2023-04-04T10:59:58.527Z,16.30
2023-04-04T11:02:52.190Z,14.70
2023-04-04T11:05:33.962Z,10.70
2023-04-04T11:08:08.179Z,10.40
2023-04-04T11:10:37.802Z,11.00
2023-04-04T11:13:34.933Z,12.50
2023-04-04T11:16:07.203Z,18.20
2023-04-04T11:18:41.218Z,13.20
2023-04-04T11:21:10.924Z,13.40
2023-04-04T11:23:59.406Z,9.90
2023-04-04T11:26:27.992Z,13.00
2023-04-04T11:29:00.024Z,10.70
2023-04-04T11:31:39.685Z,10.10
2023-04-04T11:34:08.446Z,15.80
2023-04-04T11:36:40.051Z,18.80
2023-04-04T11:39:30.518Z,15.80
2023-04-04T11:42:07.201Z,12.20
2023-04-04T11:44:42.818Z,16.00
2023-04-04T11:47:11.206Z,20.50
2023-04-04T11:49:41.141Z,11.80
2023-04-04T11:52:10.516Z,15.00
2023-04-04T11:54:39.811Z,12.80
2023-04-04T11:57:09.688Z,14.00
2023-04-04T11:59:45.034Z,16.50
2023-04-04T12:02:14.503Z,17.60
2023-04-04T12:04:45.042Z,15.90
2023-04-04T12:07:22.696Z,24.10
2023-04-04T12:09:50.465Z,21.20
2023-04-04T12:12:18.136Z,17.00
2023-04-04T12:14:46.533Z,16.00
2023-04-04T12:17:15.609Z,18.40
2023-04-04T12:19:43.153Z,19.10
2023-04-04T12:22:11.426Z,19.60
2023-04-04T12:24:38.881Z,16.00
2023-04-04T12:27:06.387Z,18.30
2023-04-04T12:29:35.890Z,21.50
2023-04-04T12:32:04.349Z,20.30
2023-04-04T12:34:32.709Z,18.40
2023-04-04T12:37:01.125Z,25.70
2023-04-04T12:39:29.163Z,20.60
2023-04-04T12:42:00.911Z,18.10
2023-04-04T12:44:33.144Z,18.00
2023-04-04T12:47:07.885Z,17.60
2023-04-04T12:49:40.770Z,17.30
2023-04-04T12:52:31.624Z,21.30
2023-04-04T12:55:08.121Z,18.90
2023-04-04T12:57:39.373Z,18.80
2023-04-04T13:00:09.212Z,20.70
2023-04-04T13:02:38.239Z,19.50
2023-04-04T13:05:07.048Z,24.20
2023-04-04T13:07:42.517Z,17.60
2023-04-04T13:10:11.442Z,23.10
2023-04-04T13:12:56.303Z,21.70
2023-04-04T13:15:50.070Z,22.80
2023-04-04T13:18:22.274Z,19.60
2023-04-04T13:20:51.163Z,23.20
2023-04-04T13:23:20.032Z,19.60
2023-04-04T13:25:47.177Z,20.70
2023-04-04T13:28:15.376Z,20.50
2023-04-04T13:30:48.559Z,22.10
2023-04-04T13:33:17.027Z,22.60
2023-04-04T13:35:45.610Z,19.40
2023-04-04T13:38:14.883Z,22.40
2023-04-04T13:40:42.397Z,19.30
2023-04-04T13:43:14.776Z,23.40
2023-04-04T13:45:46.011Z,23.80
2023-04-04T13:48:13.741Z,23.70
2023-04-04T13:50:43.819Z,23.70
2023-04-04T13:53:11.770Z,20.80
2023-04-04T13:56:01.570Z,19.70
2023-04-04T13:58:31.219Z,20.30
2023-04-04T14:00:58.773Z,19.40
2023-04-04T14:03:27.577Z,17.90
2023-04-04T14:05:55.628Z,19.20
2023-04-04T14:08:23.400Z,27.30
2023-04-04T14:10:51.157Z,26.50
2023-04-04T14:13:19.433Z,20.30
2023-04-04T14:15:47.034Z,25.30
2023-04-04T14:18:15.202Z,18.80
2023-04-04T14:20:42.727Z,26.40
2023-04-04T14:23:11.006Z,22.30
2023-04-04T14:25:38.432Z,24.50
2023-04-04T14:28:08.719Z,26.10
2023-04-04T14:30:36.136Z,22.30
2023-04-04T14:35:36.067Z,19.30
2023-04-04T14:38:03.418Z,22.80
2023-04-04T14:40:33.040Z,27.70
2023-04-04T14:43:00.696Z,19.50
2023-04-04T14:45:34.528Z,34.10
2023-04-04T14:48:02.040Z,29.30
2023-04-04T14:50:30.547Z,21.60
2023-04-04T14:52:58.095Z,22.80
2023-04-04T14:55:25.863Z,27.40
2023-04-04T14:58:02.501Z,22.70
2023-04-04T15:00:33.158Z,27.80
2023-04-04T15:03:04.184Z,21.30
2023-04-04T15:05:34.115Z,22.30
2023-04-04T15:08:01.402Z,25.10
2023-04-04T15:10:29.338Z,23.50
2023-04-04T15:13:02.116Z,26.00
2023-04-04T15:15:29.881Z,34.00
2023-04-04T15:17:58.561Z,35.70
2023-04-04T15:20:26.536Z,32.50
2023-04-04T15:22:54.205Z,27.60
2023-04-04T15:25:21.652Z,17.40
2023-04-04T15:27:49.518Z,14.40
2023-04-04T15:30:18.001Z,12.00
2023-04-04T15:32:46.517Z,13.70
2023-04-04T15:35:16.598Z,11.90
2023-04-04T15:37:44.061Z,10.90
2023-04-04T15:40:12.652Z,9.70
2023-04-04T15:42:40.838Z,12.30
2023-04-04T15:45:09.285Z,14.30
2023-04-04T15:47:36.850Z,10.50
2023-04-04T15:50:06.262Z,10.10
2023-04-04T15:52:34.051Z,14.70
2023-04-04T15:55:02.808Z,11.00
2023-04-04T15:57:31.593Z,14.40
2023-04-04T15:59:58.850Z,16.30
2023-04-04T16:02:26.368Z,15.30
2023-04-04T16:04:53.753Z,17.70
2023-04-04T16:07:21.355Z,10.60
2023-04-04T16:09:48.788Z,9.80
2023-04-04T16:12:16.531Z,14.30
2023-04-04T16:14:44.114Z,18.40
2023-04-04T16:17:13.396Z,11.60
2023-04-04T16:19:41.059Z,9.80
2023-04-04T16:22:09.230Z,11.80
2023-04-04T16:24:38.830Z,10.40
2023-04-04T16:27:06.698Z,10.60
2023-04-04T16:29:34.148Z,13.90
2023-04-04T16:32:05.208Z,14.50
2023-04-04T16:34:32.597Z,13.10
2023-04-04T16:37:03.395Z,12.80
2023-04-04T16:39:31.271Z,21.40
2023-04-04T16:42:00.044Z,19.00
2023-04-04T16:44:27.607Z,38.50
2023-04-04T16:46:55.796Z,43.30
2023-04-04T16:49:23.786Z,36.70
2023-04-04T16:51:52.433Z,41.30
2023-04-04T16:54:19.989Z,44.10
2023-04-04T16:56:47.655Z,44.30
2023-04-04T16:59:16.172Z,35.10
2023-04-04T17:01:44.726Z,31.40
2023-04-04T17:04:12.882Z,25.40
2023-04-04T17:06:41.776Z,24.20
2023-04-04T17:09:09.341Z,16.30
2023-04-04T17:11:44.652Z,18.20
2023-04-04T17:14:12.441Z,17.30
2023-04-04T17:21:47.171Z,18.30
2023-04-04T17:24:14.362Z,14.70
2023-04-04T17:26:42.332Z,16.10
2023-04-04T17:29:10.017Z,16.20
2023-04-04T17:34:12.835Z,19.00
2023-04-04T17:36:40.933Z,21.90
2023-04-04T17:39:09.039Z,24.30
2023-04-04T17:41:40.254Z,21.80
2023-04-04T17:44:09.059Z,23.50
2023-04-04T17:46:37.569Z,24.50
2023-04-04T17:49:06.641Z,20.80
2023-04-04T17:51:34.110Z,21.30
2023-04-04T17:54:01.852Z,18.80
2023-04-04T17:56:29.266Z,26.70
2023-04-04T17:58:57.309Z,31.20
2023-04-04T18:01:28.936Z,27.40
2023-04-04T18:03:57.480Z,33.20
2023-04-04T18:06:26.239Z,24.90
2023-04-04T18:08:54.791Z,28.30
2023-04-04T18:11:25.168Z,28.80
2023-04-04T18:13:53.283Z,22.30
2023-04-04T18:16:21.003Z,24.80
2023-04-04T18:18:51.471Z,25.20
2023-04-04T18:21:20.279Z,21.30
2023-04-04T18:23:48.235Z,22.50
2023-04-04T18:26:15.730Z,19.70
2023-04-04T18:28:45.694Z,31.10
2023-04-04T18:31:13.383Z,28.00
2023-04-04T18:33:40.612Z,21.80
2023-04-04T18:36:07.873Z,21.50
2023-04-04T18:38:35.785Z,21.90
2023-04-04T18:41:05.297Z,17.20
2023-04-04T18:43:32.794Z,20.60
2023-04-04T18:46:04.372Z,25.80
2023-04-04T18:48:33.571Z,19.70
2023-04-04T18:51:01.308Z,18.80
2023-04-04T18:53:30.759Z,19.10
2023-04-04T18:55:58.151Z,22.20
2023-04-04T18:58:26.849Z,23.80
2023-04-04T19:00:55.474Z,24.50
2023-04-04T19:03:25.559Z,24.30
2023-04-04T19:05:53.862Z,25.90
2023-04-04T19:08:22.014Z,20.00
2023-04-04T19:10:50.617Z,23.40
2023-04-04T19:13:20.297Z,20.70
2023-04-04T19:15:49.291Z,19.30
2023-04-04T19:18:17.878Z,22.60
2023-04-04T19:20:45.641Z,21.50
2023-04-04T19:23:15.153Z,19.70
2023-04-04T19:25:42.885Z,25.10
2023-04-04T19:28:11.031Z,20.20
2023-04-04T19:30:49.326Z,23.30
2023-04-04T19:33:19.815Z,17.40
2023-04-04T19:35:53.008Z,18.30
2023-04-04T19:38:25.845Z,19.20
2023-04-04T19:40:58.309Z,18.30
2023-04-04T19:43:26.330Z,17.90
2023-04-04T19:45:55.789Z,20.40
2023-04-04T19:48:38.558Z,18.70
2023-04-04T19:51:11.845Z,20.50
2023-04-04T19:53:44.753Z,25.00
2023-04-04T19:56:13.740Z,20.20
2023-04-04T19:58:41.185Z,19.10
2023-04-04T20:01:10.496Z,19.50
2023-04-04T20:03:38.666Z,20.30
2023-04-04T20:06:27.815Z,16.40
2023-04-04T20:08:56.542Z,17.60
2023-04-04T20:11:29.896Z,15.90
2023-04-04T20:14:01.253Z,23.90
2023-04-04T20:16:29.477Z,17.80
2023-04-04T20:18:58.232Z,18.70
2023-04-04T20:21:27.826Z,21.10
2023-04-04T20:24:07.739Z,18.90
2023-04-04T20:26:35.992Z,17.30
2023-04-04T20:29:14.855Z,19.30
2023-04-04T20:31:47.867Z,24.10
2023-04-04T20:34:38.903Z,17.70
2023-04-04T20:37:14.228Z,14.20
